Time;durP1;ratioP1;P1;durP2;ratioP2;P2;SDS_P1;SDS_P2;PMS_P1;PMS_P2;Temp;Humidity;BMP_temperature;BMP_pressure;BME280_temperature;BME280_humidity;BME280_pressure;Samples;Min_cycle;Max_cycle;Signal;HPM_P1;HPM_P2
2023/06/20 00:00:09;;;;;;;9.87;7.30;;;;;;;;;;6227307;22;20377;-89
2023/06/20 00:02:36;;;;;;;8.73;7.10;;;;;;;;;;6229972;22;20504;-89
2023/06/20 00:05:03;;;;;;;9.73;7.60;;;;;;;;;;6229174;22;20845;-89
2023/06/20 00:07:29;;;;;;;8.03;7.23;;;;;;;;;;6230164;22;20385;-89
2023/06/20 00:09:55;;;;;;;9.83;8.40;;;;;;;;;;6229231;22;20475;-89
2023/06/20 00:12:21;;;;;;;9.00;7.97;;;;;;;;;;6254982;22;20353;-89
2023/06/20 00:14:47;;;;;;;8.33;7.43;;;;;;;;;;6229601;22;20373;-90
2023/06/20 00:17:13;;;;;;;8.97;7.97;;;;;;;;;;6229791;22;20408;-89
2023/06/20 00:19:40;;;;;;;9.70;6.97;;;;;;;;;;6228223;22;20378;-90
2023/06/20 00:22:06;;;;;;;8.00;7.20;;;;;;;;;;6229217;22;20480;-90
2023/06/20 00:24:32;;;;;;;7.77;7.00;;;;;;;;;;6228405;22;20385;-90
2023/06/20 00:26:59;;;;;;;8.57;7.67;;;;;;;;;;6226445;22;20431;-90
2023/06/20 00:29:25;;;;;;;7.93;7.13;;;;;;;;;;6228278;22;20395;-90
2023/06/20 00:31:51;;;;;;;7.83;7.00;;;;;;;;;;6230922;22;20401;-90
2023/06/20 00:34:17;;;;;;;7.40;6.30;;;;;;;;;;6229193;22;20378;-90
2023/06/20 00:36:45;;;;;;;7.73;6.93;;;;;;;;;;6230588;22;20381;-90
2023/06/20 00:39:11;;;;;;;8.13;6.87;;;;;;;;;;6231419;22;20758;-90
2023/06/20 00:41:38;;;;;;;7.70;6.90;;;;;;;;;;6227462;22;20503;-90
2023/06/20 00:44:04;;;;;;;8.03;7.23;;;;;;;;;;6227965;22;20838;-88
2023/06/20 00:46:31;;;;;;;9.07;8.17;;;;;;;;;;6228470;22;21044;-87
2023/06/20 00:48:58;;;;;;;10.80;8.90;;;;;;;;;;6228616;22;20377;-89
2023/06/20 00:51:24;;;;;;;11.57;8.13;;;;;;;;;;6227379;22;20718;-88
2023/06/20 00:53:50;;;;;;;9.97;8.70;;;;;;;;;;6228239;22;20377;-89
2023/06/20 00:56:18;;;;;;;10.87;9.40;;;;;;;;;;6226463;22;20451;-86
2023/06/20 00:58:44;;;;;;;13.90;8.43;;;;;;;;;;6229821;22;20464;-89
2023/06/20 01:01:10;;;;;;;9.70;8.73;;;;;;;;;;6227166;22;20388;-89
2023/06/20 01:03:36;;;;;;;10.43;9.43;;;;;;;;;;6227066;22;20417;-88
2023/06/20 01:06:09;;;;;;;10.67;8.60;;;;;;;;;;6227618;22;20397;-89
2023/06/20 01:08:54;;;;;;;9.93;8.37;;;;;;;;;;6258917;22;20345;-89
2023/06/20 01:11:26;;;;;;;9.97;8.93;;;;;;;;;;6252284;22;20374;-87
2023/06/20 01:13:59;;;;;;;9.87;8.70;;;;;;;;;;6252786;22;20377;-88
2023/06/20 01:16:35;;;;;;;9.17;8.20;;;;;;;;;;6227322;22;20384;-89
2023/06/20 01:19:16;;;;;;;10.40;8.20;;;;;;;;;;6253289;22;20880;-89
2023/06/20 01:21:53;;;;;;;8.23;7.43;;;;;;;;;;6251919;22;21071;-89
2023/06/20 01:24:19;;;;;;;8.63;7.13;;;;;;;;;;6253111;22;20412;-90
2023/06/20 01:27:01;;;;;;;8.27;7.37;;;;;;;;;;6252833;22;20423;-89
2023/06/20 01:29:27;;;;;;;7.30;6.60;;;;;;;;;;6254711;22;20397;-89
2023/06/20 01:31:56;;;;;;;8.37;7.47;;;;;;;;;;6253290;22;20388;-89
2023/06/20 01:34:23;;;;;;;7.50;6.80;;;;;;;;;;6227067;22;20388;-90
2023/06/20 01:36:59;;;;;;;7.73;5.70;;;;;;;;;;6228419;22;20412;-90
2023/06/20 01:39:32;;;;;;;6.70;5.60;;;;;;;;;;6233257;22;20388;-89
2023/06/20 01:41:59;;;;;;;6.70;5.43;;;;;;;;;;6227372;22;20405;-90
2023/06/20 01:44:26;;;;;;;7.00;5.30;;;;;;;;;;6227598;22;20435;-90
2023/06/20 01:46:52;;;;;;;6.20;5.50;;;;;;;;;;6226887;22;20357;-89
2023/06/20 01:49:18;;;;;;;6.97;5.60;;;;;;;;;;6226894;22;20377;-91
2023/06/20 01:51:44;;;;;;;6.73;5.60;;;;;;;;;;6225583;22;21099;-90
2023/06/20 01:54:10;;;;;;;6.67;5.97;;;;;;;;;;6252838;22;20392;-90
2023/06/20 01:56:36;;;;;;;7.73;5.93;;;;;;;;;;6226157;22;20373;-90
2023/06/20 01:59:02;;;;;;;8.03;6.03;;;;;;;;;;6228069;22;20454;-90
2023/06/20 02:01:29;;;;;;;6.40;5.60;;;;;;;;;;6226078;22;20365;-90
2023/06/20 02:03:55;;;;;;;6.20;5.17;;;;;;;;;;6227864;22;20430;-90
2023/06/20 02:06:21;;;;;;;6.93;5.37;;;;;;;;;;6251459;22;20361;-91
2023/06/20 02:08:47;;;;;;;5.37;4.87;;;;;;;;;;6231656;22;20460;-90
2023/06/20 02:11:14;;;;;;;6.03;5.40;;;;;;;;;;6227144;22;20887;-90
2023/06/20 02:13:40;;;;;;;5.63;5.13;;;;;;;;;;6227310;22;20400;-90
2023/06/20 02:16:08;;;;;;;6.63;5.23;;;;;;;;;;6227782;22;20373;-90
2023/06/20 02:18:33;;;;;;;6.70;5.00;;;;;;;;;;6227602;22;20405;-89
2023/06/20 02:21:07;;;;;;;4.90;4.40;;;;;;;;;;6226508;22;20883;-90
2023/06/20 02:23:33;;;;;;;5.43;4.90;;;;;;;;;;6254394;22;20428;-90
2023/06/20 02:26:08;;;;;;;6.40;4.37;;;;;;;;;;6227414;22;20393;-90
2023/06/20 02:28:35;;;;;;;6.90;5.00;;;;;;;;;;6230201;22;20368;-90
2023/06/20 02:31:01;;;;;;;5.90;4.60;;;;;;;;;;6228086;22;20453;-90
2023/06/20 02:33:27;;;;;;;5.63;5.00;;;;;;;;;;6228995;22;20385;-90
2023/06/20 02:35:53;;;;;;;5.40;4.50;;;;;;;;;;6227866;22;20397;-90
2023/06/20 02:38:19;;;;;;;6.90;5.20;;;;;;;;;;6225508;22;20436;-91
2023/06/20 02:40:45;;;;;;;5.60;4.70;;;;;;;;;;6226346;22;20381;-91
2023/06/20 02:43:11;;;;;;;8.40;5.90;;;;;;;;;;6230757;22;20424;-91
2023/06/20 02:45:37;;;;;;;5.97;5.30;;;;;;;;;;6226696;22;20385;-91
2023/06/20 02:48:12;;;;;;;6.30;5.13;;;;;;;;;;6231181;22;20377;-90
2023/06/20 02:50:57;;;;;;;8.50;5.17;;;;;;;;;;6253135;22;20886;-90
2023/06/20 02:53:30;;;;;;;6.67;5.53;;;;;;;;;;6252370;22;20381;-90
2023/06/20 02:55:57;;;;;;;7.27;5.73;;;;;;;;;;6227167;22;20385;-90
2023/06/20 02:58:24;;;;;;;6.40;5.00;;;;;;;;;;6229346;22;20396;-90
2023/06/20 03:00:51;;;;;;;8.33;5.30;;;;;;;;;;6227883;22;20871;-90
2023/06/20 03:03:22;;;;;;;11.50;8.50;;;;;;;;;;6229707;22;20530;-90
2023/06/20 03:05:48;;;;;;;7.83;5.47;;;;;;;;;;6227747;22;20382;-91
2023/06/20 03:08:14;;;;;;;6.13;5.00;;;;;;;;;;6230065;22;20404;-90
2023/06/20 03:10:41;;;;;;;6.47;5.50;;;;;;;;;;6228567;22;20392;-91
2023/06/20 03:13:07;;;;;;;5.90;5.40;;;;;;;;;;6233587;22;20385;-90
2023/06/20 03:15:33;;;;;;;7.77;6.33;;;;;;;;;;6228749;22;20468;-90
2023/06/20 03:18:00;;;;;;;7.33;5.57;;;;;;;;;;6230337;22;20416;-90
2023/06/20 03:20:27;;;;;;;6.90;5.37;;;;;;;;;;6229435;22;20393;-90
2023/06/20 03:22:53;;;;;;;9.47;5.47;;;;;;;;;;6228731;22;20433;-90
2023/06/20 03:25:19;;;;;;;9.27;5.20;;;;;;;;;;6229474;22;20507;-90
2023/06/20 03:27:45;;;;;;;7.03;5.30;;;;;;;;;;6255206;22;20361;-88
2023/06/20 03:30:11;;;;;;;7.07;5.47;;;;;;;;;;6227881;22;20362;-90
2023/06/20 03:32:37;;;;;;;5.17;4.43;;;;;;;;;;6229854;22;20403;-90
2023/06/20 03:35:04;;;;;;;4.53;4.10;;;;;;;;;;6228385;22;20433;-91
2023/06/20 03:37:30;;;;;;;6.87;5.57;;;;;;;;;;6232695;22;20885;-91
2023/06/20 03:39:56;;;;;;;5.93;5.33;;;;;;;;;;6230922;22;20435;-92
2023/06/20 03:42:22;;;;;;;6.90;5.57;;;;;;;;;;6229879;22;20412;-91
2023/06/20 03:44:48;;;;;;;7.93;4.83;;;;;;;;;;6229142;22;20434;-90
2023/06/20 03:47:14;;;;;;;7.27;4.70;;;;;;;;;;6233226;22;20416;-90
2023/06/20 03:49:40;;;;;;;7.27;4.87;;;;;;;;;;6230580;22;20456;-90
2023/06/20 03:52:06;;;;;;;6.40;4.60;;;;;;;;;;6231760;22;20729;-90
2023/06/20 03:54:34;;;;;;;6.10;4.43;;;;;;;;;;6256595;22;20377;-91
2023/06/20 03:57:00;;;;;;;5.50;4.40;;;;;;;;;;6233505;22;20377;-90
2023/06/20 03:59:26;;;;;;;5.97;4.43;;;;;;;;;;6233884;22;20377;-90
2023/06/20 04:01:52;;;;;;;7.33;4.97;;;;;;;;;;6230294;22;20421;-90
2023/06/20 04:04:19;;;;;;;7.10;4.87;;;;;;;;;;6233318;22;20380;-89
2023/06/20 04:06:49;;;;;;;5.90;4.43;;;;;;;;;;6230737;22;20365;-91
2023/06/20 04:09:17;;;;;;;5.50;4.70;;;;;;;;;;6232461;22;20754;-89
2023/06/20 04:11:43;;;;;;;6.03;4.53;;;;;;;;;;6230349;22;20933;-91
2023/06/20 04:14:09;;;;;;;5.73;4.43;;;;;;;;;;6231286;22;20377;-90
2023/06/20 04:16:35;;;;;;;7.97;4.70;;;;;;;;;;6230530;22;20866;-90
2023/06/20 04:19:01;;;;;;;6.10;4.70;;;;;;;;;;6228605;22;20382;-91
2023/06/20 04:21:27;;;;;;;10.70;4.77;;;;;;;;;;6231110;22;20383;-90
2023/06/20 04:23:53;;;;;;;7.20;5.33;;;;;;;;;;6228531;22;20457;-91
2023/06/20 04:26:19;;;;;;;6.93;5.17;;;;;;;;;;6229381;22;20377;-90
2023/06/20 04:28:45;;;;;;;5.77;5.13;;;;;;;;;;6230660;22;20431;-91
2023/06/20 04:31:11;;;;;;;6.77;4.33;;;;;;;;;;6228050;22;20384;-91
2023/06/20 04:33:43;;;;;;;4.57;3.93;;;;;;;;;;6230213;22;20505;-89
2023/06/20 04:36:13;;;;;;;7.20;5.47;;;;;;;;;;6228741;22;20402;-91
2023/06/20 04:38:48;;;;;;;5.87;4.80;;;;;;;;;;6231332;22;20381;-90
2023/06/20 04:41:14;;;;;;;6.20;4.90;;;;;;;;;;6230853;22;20899;-91
2023/06/20 04:43:44;;;;;;;5.30;4.67;;;;;;;;;;6230201;22;20429;-91
2023/06/20 04:46:12;;;;;;;9.03;4.70;;;;;;;;;;6230636;22;20378;-90
2023/06/20 04:48:38;;;;;;;5.30;4.40;;;;;;;;;;6232602;22;20373;-90
2023/06/20 04:51:08;;;;;;;5.73;4.03;;;;;;;;;;6231829;22;20416;-90
2023/06/20 04:53:34;;;;;;;6.50;4.57;;;;;;;;;;6230078;22;20389;-90
2023/06/20 04:56:00;;;;;;;6.80;5.53;;;;;;;;;;6233378;22;20418;-91
2023/06/20 04:58:29;;;;;;;7.83;4.53;;;;;;;;;;6228969;22;20876;-90
2023/06/20 05:00:59;;;;;;;5.97;4.50;;;;;;;;;;6232923;22;20425;-91
2023/06/20 05:03:25;;;;;;;5.80;4.90;;;;;;;;;;6254597;22;20417;-90
2023/06/20 05:05:51;;;;;;;7.30;4.00;;;;;;;;;;6230924;22;20369;-90
2023/06/20 05:08:17;;;;;;;4.70;4.07;;;;;;;;;;6235407;22;20815;-90
2023/06/20 05:10:44;;;;;;;5.23;3.97;;;;;;;;;;6227810;22;20468;-92
2023/06/20 05:13:10;;;;;;;7.23;4.43;;;;;;;;;;6232526;22;20806;-90
2023/06/20 05:15:36;;;;;;;5.80;4.47;;;;;;;;;;6229651;22;20380;-90
2023/06/20 05:18:02;;;;;;;6.70;4.60;;;;;;;;;;6232785;22;20714;-90
2023/06/20 05:20:28;;;;;;;4.73;4.20;;;;;;;;;;6229619;22;20381;-90
2023/06/20 05:22:54;;;;;;;5.00;4.00;;;;;;;;;;6229889;22;20440;-91
2023/06/20 05:25:20;;;;;;;6.37;4.60;;;;;;;;;;6231008;22;20460;-90
2023/06/20 05:27:47;;;;;;;8.40;5.20;;;;;;;;;;6259074;22;20365;-89
2023/06/20 05:30:13;;;;;;;7.47;4.83;;;;;;;;;;6227473;22;20377;-90
2023/06/20 05:32:39;;;;;;;8.10;4.87;;;;;;;;;;6229102;22;20380;-91
2023/06/20 05:35:07;;;;;;;4.40;4.00;;;;;;;;;;6231036;22;20377;-90
2023/06/20 05:37:33;;;;;;;7.93;4.63;;;;;;;;;;6231193;22;20377;-91
2023/06/20 05:39:59;;;;;;;5.27;4.37;;;;;;;;;;6254838;22;20373;-91
2023/06/20 05:42:25;;;;;;;5.83;3.87;;;;;;;;;;6229839;22;20428;-91
2023/06/20 05:44:51;;;;;;;5.30;4.80;;;;;;;;;;6230879;22;20380;-92
2023/06/20 05:47:17;;;;;;;4.73;4.30;;;;;;;;;;6224086;23;20393;-90
2023/06/20 05:49:46;;;;;;;6.00;4.37;;;;;;;;;;6202341;23;20382;-90
2023/06/20 05:52:12;;;;;;;5.40;4.60;;;;;;;;;;6200476;23;20391;-90
2023/06/20 05:54:41;;;;;;;5.23;4.40;;;;;;;;;;6200639;23;20882;-91
2023/06/20 05:57:07;;;;;;;8.60;5.10;;;;;;;;;;6202598;23;20410;-91
2023/06/20 05:59:34;;;;;;;5.77;4.70;;;;;;;;;;6198575;23;20467;-91
2023/06/20 06:02:00;;;;;;;5.03;4.47;;;;;;;;;;6169159;23;20418;-90
2023/06/20 06:04:26;;;;;;;6.07;4.50;;;;;;;;;;6168464;23;20399;-91
2023/06/20 06:06:54;;;;;;;7.47;5.73;;;;;;;;;;6169928;23;20379;-90
2023/06/20 06:09:20;;;;;;;8.57;4.60;;;;;;;;;;6168156;23;20394;-90
2023/06/20 06:11:46;;;;;;;5.67;4.97;;;;;;;;;;6168795;23;20422;-90
2023/06/20 06:14:13;;;;;;;5.27;4.77;;;;;;;;;;6168406;23;20501;-90
2023/06/20 06:16:38;;;;;;;5.53;4.80;;;;;;;;;;6167450;23;20368;-91
2023/06/20 06:19:04;;;;;;;6.73;4.93;;;;;;;;;;6138030;23;20391;-89
2023/06/20 06:21:31;;;;;;;6.07;5.47;;;;;;;;;;6133566;23;20412;-90
2023/06/20 06:23:57;;;;;;;8.90;5.83;;;;;;;;;;6151630;23;20408;-91
2023/06/20 06:26:23;;;;;;;5.70;4.70;;;;;;;;;;6186437;23;20376;-90
2023/06/20 06:28:53;;;;;;;7.30;4.97;;;;;;;;;;6160800;23;20467;-90
2023/06/20 06:31:24;;;;;;;6.13;4.70;;;;;;;;;;6238380;23;20385;-91
2023/06/20 06:33:51;;;;;;;5.50;5.00;;;;;;;;;;6198582;23;20720;-89
2023/06/20 06:36:17;;;;;;;5.97;5.10;;;;;;;;;;6197924;23;20432;-90
2023/06/20 06:38:48;;;;;;;9.20;5.63;;;;;;;;;;6198277;23;20620;-90
2023/06/20 06:41:15;;;;;;;5.10;4.00;;;;;;;;;;6198777;23;20458;-92
2023/06/20 06:43:41;;;;;;;5.80;4.73;;;;;;;;;;6196788;23;20467;-91
2023/06/20 06:46:07;;;;;;;8.13;5.47;;;;;;;;;;6199646;23;20449;-90
2023/06/20 06:48:33;;;;;;;5.90;4.60;;;;;;;;;;6197083;23;20390;-91
2023/06/20 06:50:59;;;;;;;9.33;5.23;;;;;;;;;;6200695;23;20378;-91
2023/06/20 06:53:25;;;;;;;7.60;4.87;;;;;;;;;;6133443;23;20377;-91
2023/06/20 06:55:51;;;;;;;6.50;5.13;;;;;;;;;;6108073;23;20408;-91
2023/06/20 06:58:17;;;;;;;6.73;5.50;;;;;;;;;;6107067;23;20389;-91
2023/06/20 07:00:43;;;;;;;8.00;5.50;;;;;;;;;;6113621;23;20373;-91
2023/06/20 07:03:10;;;;;;;6.03;5.13;;;;;;;;;;6105941;23;20421;-90
2023/06/20 07:05:37;;;;;;;6.70;5.03;;;;;;;;;;6107304;23;20385;-89
2023/06/20 07:08:03;;;;;;;5.27;4.77;;;;;;;;;;6104234;23;20408;-90
2023/06/20 07:10:29;;;;;;;6.37;5.40;;;;;;;;;;6129617;23;20373;-90
2023/06/20 07:12:54;;;;;;;5.80;5.20;;;;;;;;;;6105269;23;20393;-89
2023/06/20 07:15:20;;;;;;;7.17;5.63;;;;;;;;;;6106181;23;20751;-91
2023/06/20 07:17:46;;;;;;;6.30;5.70;;;;;;;;;;6106921;23;20439;-88
2023/06/20 07:20:13;;;;;;;6.97;5.70;;;;;;;;;;6107859;23;20457;-90
2023/06/20 07:22:39;;;;;;;8.63;4.77;;;;;;;;;;6113489;23;20842;-90
2023/06/20 07:25:06;;;;;;;11.93;5.83;;;;;;;;;;6161747;23;20384;-89
2023/06/20 07:27:32;;;;;;;6.43;5.77;;;;;;;;;;6161162;23;20380;-89
2023/06/20 07:29:58;;;;;;;9.07;5.50;;;;;;;;;;6176171;22;20418;-88
2023/06/20 07:32:24;;;;;;;8.77;5.23;;;;;;;;;;6230540;22;20369;-90
2023/06/20 07:34:50;;;;;;;7.20;5.00;;;;;;;;;;6228504;22;20504;-90
2023/06/20 07:37:16;;;;;;;9.50;7.07;;;;;;;;;;6227402;22;21182;-90
2023/06/20 07:39:43;;;;;;;7.10;5.90;;;;;;;;;;6228608;22;20408;-87
2023/06/20 07:42:09;;;;;;;7.13;5.60;;;;;;;;;;6229264;22;20452;-90
2023/06/20 07:44:35;;;;;;;10.80;6.03;;;;;;;;;;6252804;22;20365;-90
2023/06/20 07:47:02;;;;;;;7.20;5.97;;;;;;;;;;6226894;22;20880;-90
2023/06/20 07:49:28;;;;;;;8.67;6.77;;;;;;;;;;6226119;22;20373;-90
2023/06/20 07:51:54;;;;;;;7.70;7.00;;;;;;;;;;6228822;22;20365;-90
2023/06/20 07:54:20;;;;;;;10.37;6.27;;;;;;;;;;6228146;22;20450;-89
2023/06/20 07:56:46;;;;;;;6.10;5.47;;;;;;;;;;6228568;22;20374;-89
2023/06/20 07:59:15;;;;;;;9.67;6.20;;;;;;;;;;6228064;22;20379;-91
2023/06/20 08:01:41;;;;;;;7.10;6.13;;;;;;;;;;6226887;22;20427;-90
2023/06/20 08:04:07;;;;;;;8.33;5.47;;;;;;;;;;6227598;22;20377;-90
2023/06/20 08:06:33;;;;;;;8.03;6.60;;;;;;;;;;6231674;22;20390;-89
2023/06/20 08:08:59;;;;;;;10.83;6.60;;;;;;;;;;6226877;22;20923;-89
2023/06/20 08:11:25;;;;;;;9.17;5.23;;;;;;;;;;6228745;22;20377;-90
2023/06/20 08:13:51;;;;;;;8.30;5.97;;;;;;;;;;6251194;22;20358;-89
2023/06/20 08:16:17;;;;;;;7.60;6.00;;;;;;;;;;6253181;22;20388;-89
2023/06/20 08:18:43;;;;;;;6.50;5.90;;;;;;;;;;6229392;22;20378;-90
2023/06/20 08:21:09;;;;;;;9.60;6.83;;;;;;;;;;6228283;22;20416;-89
2023/06/20 08:23:35;;;;;;;8.67;6.83;;;;;;;;;;6222982;23;20425;-90
2023/06/20 08:26:01;;;;;;;6.73;6.03;;;;;;;;;;6223924;23;20474;-89
2023/06/20 08:28:27;;;;;;;8.13;6.10;;;;;;;;;;6225419;23;20989;-88
2023/06/20 08:33:34;;;;;;;8.17;6.03;;;;;;;;;;6165957;23;20751;-90
2023/06/20 08:36:01;;;;;;;8.10;6.10;;;;;;;;;;6111603;23;20385;-90
2023/06/20 08:38:27;;;;;;;6.33;5.73;;;;;;;;;;6114650;23;20381;-91
2023/06/20 08:40:53;;;;;;;6.97;6.10;;;;;;;;;;6110853;23;20412;-89
2023/06/20 08:43:19;;;;;;;7.27;6.03;;;;;;;;;;6110897;23;20412;-90
2023/06/20 08:45:45;;;;;;;6.27;5.63;;;;;;;;;;6109895;23;20778;-92
2023/06/20 08:48:11;;;;;;;8.80;6.97;;;;;;;;;;6110925;23;20443;-91
2023/06/20 08:50:37;;;;;;;5.70;5.00;;;;;;;;;;6111722;23;20392;-92
2023/06/20 08:53:07;;;;;;;7.83;6.17;;;;;;;;;;6110611;23;20420;-91
2023/06/20 08:55:33;;;;;;;8.07;5.80;;;;;;;;;;6110821;23;20396;-92
2023/06/20 08:57:59;;;;;;;8.07;6.00;;;;;;;;;;6112057;23;20385;-91
2023/06/20 09:00:26;;;;;;;9.13;5.70;;;;;;;;;;6119693;23;20401;-89
2023/06/20 09:02:52;;;;;;;7.50;6.80;;;;;;;;;;6110510;23;20421;-89
2023/06/20 09:05:18;;;;;;;10.23;6.57;;;;;;;;;;6136240;23;21038;-91
2023/06/20 09:07:44;;;;;;;10.87;7.10;;;;;;;;;;6112443;23;20441;-91
2023/06/20 09:10:14;;;;;;;7.67;6.07;;;;;;;;;;6110490;23;20381;-90
2023/06/20 09:12:46;;;;;;;7.07;6.00;;;;;;;;;;6113920;23;20373;-89
2023/06/20 09:15:14;;;;;;;10.50;6.50;;;;;;;;;;6105735;23;20419;-89
2023/06/20 09:17:40;;;;;;;7.47;6.33;;;;;;;;;;6108206;23;20852;-90
2023/06/20 09:20:07;;;;;;;7.87;6.20;;;;;;;;;;6105166;23;20760;-89
2023/06/20 09:22:33;;;;;;;7.60;6.77;;;;;;;;;;6134581;23;21008;-89
2023/06/20 09:24:59;;;;;;;9.77;6.40;;;;;;;;;;6109520;23;21037;-89
2023/06/20 09:27:25;;;;;;;8.67;7.03;;;;;;;;;;6109681;23;20798;-90
2023/06/20 09:29:52;;;;;;;7.50;6.70;;;;;;;;;;6108188;23;20403;-89
2023/06/20 09:32:20;;;;;;;6.93;6.20;;;;;;;;;;6120341;23;20391;-89
2023/06/20 09:34:46;;;;;;;9.50;6.67;;;;;;;;;;6157609;23;20374;-89
2023/06/20 09:37:12;;;;;;;7.90;6.10;;;;;;;;;;6162302;23;20391;-89
2023/06/20 09:39:38;;;;;;;7.23;6.07;;;;;;;;;;6186467;23;20402;-89
2023/06/20 09:42:10;;;;;;;8.50;5.90;;;;;;;;;;6165868;23;20949;-89
2023/06/20 09:44:36;;;;;;;9.00;6.57;;;;;;;;;;6156392;23;20546;-88
2023/06/20 09:47:02;;;;;;;8.93;6.50;;;;;;;;;;6188871;23;20372;-90
2023/06/20 09:49:28;;;;;;;7.23;6.10;;;;;;;;;;6158832;23;20380;-90
2023/06/20 09:51:55;;;;;;;8.53;6.23;;;;;;;;;;6165114;23;20368;-88
2023/06/20 09:54:41;;;;;;;6.60;5.80;;;;;;;;;;6162889;23;20408;-89
2023/06/20 09:57:10;;;;;;;6.90;5.97;;;;;;;;;;6188107;23;20380;-90
2023/06/20 09:59:38;;;;;;;8.87;6.50;;;;;;;;;;6163355;23;20391;-90
2023/06/20 10:02:06;;;;;;;8.30;7.37;;;;;;;;;;6164399;23;20420;-89
2023/06/20 10:04:33;;;;;;;7.50;6.60;;;;;;;;;;6164190;23;20384;-90
2023/06/20 10:06:59;;;;;;;6.87;5.60;;;;;;;;;;6167321;23;20377;-91
2023/06/20 10:09:25;;;;;;;6.50;5.83;;;;;;;;;;6166402;23;20391;-89
2023/06/20 10:11:53;;;;;;;8.43;7.63;;;;;;;;;;6167319;23;20435;-91
2023/06/20 10:14:19;;;;;;;10.57;6.23;;;;;;;;;;6165063;23;20380;-89
2023/06/20 10:16:51;;;;;;;8.67;6.00;;;;;;;;;;6163383;23;20527;-90
2023/06/20 10:19:18;;;;;;;7.43;5.93;;;;;;;;;;6165782;23;20449;-90
2023/06/20 10:21:57;;;;;;;8.70;6.27;;;;;;;;;;6165756;23;20848;-90
2023/06/20 10:24:27;;;;;;;8.70;5.90;;;;;;;;;;6165113;23;20739;-91
2023/06/20 10:27:01;;;;;;;10.23;6.00;;;;;;;;;;6163330;23;20446;-90
2023/06/20 10:29:27;;;;;;;5.90;5.30;;;;;;;;;;6164169;23;20368;-90
2023/06/20 10:31:57;;;;;;;6.97;5.73;;;;;;;;;;6160044;23;20472;-88
2023/06/20 10:34:29;;;;;;;12.07;5.70;;;;;;;;;;6109597;23;20464;-90
2023/06/20 10:37:08;;;;;;;7.20;5.70;;;;;;;;;;6110320;23;20392;-91
2023/06/20 10:39:34;;;;;;;6.20;5.60;;;;;;;;;;6108295;23;20381;-91
2023/06/20 10:42:06;;;;;;;6.63;5.17;;;;;;;;;;6112553;23;20412;-87
2023/06/20 10:44:32;;;;;;;7.40;6.10;;;;;;;;;;6105936;23;20387;-90
2023/06/20 10:46:58;;;;;;;7.17;6.20;;;;;;;;;;6104213;23;20389;-89
2023/06/20 10:49:24;;;;;;;6.97;6.00;;;;;;;;;;6106510;23;20369;-88
2023/06/20 10:51:51;;;;;;;7.40;5.90;;;;;;;;;;6108941;23;20377;-89
2023/06/20 10:54:17;;;;;;;6.87;6.17;;;;;;;;;;6116084;23;20410;-90
2023/06/20 10:56:43;;;;;;;7.57;5.20;;;;;;;;;;6108786;23;20380;-89
2023/06/20 10:59:16;;;;;;;7.73;5.30;;;;;;;;;;6108281;23;20737;-89
2023/06/20 11:01:42;;;;;;;8.30;6.33;;;;;;;;;;6107179;23;20749;-89
2023/06/20 11:04:09;;;;;;;6.37;5.27;;;;;;;;;;6107227;23;20381;-89
2023/06/20 11:06:35;;;;;;;6.67;5.10;;;;;;;;;;6108812;23;20379;-88
2023/06/20 11:09:01;;;;;;;7.87;5.70;;;;;;;;;;6134399;23;20883;-88
2023/06/20 11:11:37;;;;;;;8.90;5.83;;;;;;;;;;6108260;23;20385;-88
2023/06/20 11:14:16;;;;;;;7.43;5.77;;;;;;;;;;6109918;23;20385;-88
2023/06/20 11:16:43;;;;;;;8.27;5.70;;;;;;;;;;6106194;23;20381;-88
2023/06/20 11:19:09;;;;;;;6.10;5.50;;;;;;;;;;6108653;23;20385;-88
2023/06/20 11:21:35;;;;;;;6.50;5.40;;;;;;;;;;6108389;23;20492;-88
2023/06/20 11:24:01;;;;;;;5.20;4.70;;;;;;;;;;6109125;23;20396;-88
2023/06/20 11:26:31;;;;;;;6.17;5.63;;;;;;;;;;6108501;23;20403;-89
2023/06/20 11:29:03;;;;;;;5.40;4.90;;;;;;;;;;6109538;23;20783;-89
2023/06/20 11:31:29;;;;;;;9.33;6.80;;;;;;;;;;6131763;23;21074;-89
2023/06/20 11:34:05;;;;;;;6.50;5.43;;;;;;;;;;6159105;23;20388;-88
2023/06/20 11:36:32;;;;;;;6.17;5.17;;;;;;;;;;6162844;23;20383;-87
2023/06/20 11:38:59;;;;;;;11.43;5.97;;;;;;;;;;6163589;23;20372;-88
2023/06/20 11:41:31;;;;;;;7.90;6.93;;;;;;;;;;6161801;23;20458;-88
2023/06/20 11:43:57;;;;;;;6.93;4.80;;;;;;;;;;6165323;23;20510;-87
2023/06/20 11:46:23;;;;;;;9.80;5.83;;;;;;;;;;6162481;23;20902;-89
2023/06/20 11:48:53;;;;;;;6.30;5.70;;;;;;;;;;6163741;23;20466;-87
2023/06/20 11:51:20;;;;;;;5.80;5.20;;;;;;;;;;6159903;23;20915;-88
2023/06/20 11:53:46;;;;;;;7.90;6.03;;;;;;;;;;6163984;23;20423;-88
2023/06/20 11:56:14;;;;;;;7.13;5.50;;;;;;;;;;6164069;23;20391;-88
2023/06/20 11:58:44;;;;;;;7.03;5.20;;;;;;;;;;6168034;23;20416;-88
2023/06/20 12:01:14;;;;;;;6.80;6.00;;;;;;;;;;6164445;23;20372;-89
2023/06/20 12:03:41;;;;;;;7.53;6.07;;;;;;;;;;6163810;23;20928;-88
2023/06/20 12:06:26;;;;;;;8.80;6.10;;;;;;;;;;6170953;23;20848;-89
2023/06/20 12:08:53;;;;;;;6.80;5.90;;;;;;;;;;6190389;23;20411;-88
2023/06/20 12:11:19;;;;;;;8.10;6.10;;;;;;;;;;6194294;23;20414;-88
2023/06/20 12:13:45;;;;;;;9.03;5.33;;;;;;;;;;6164573;23;20380;-89
2023/06/20 12:16:11;;;;;;;6.23;5.63;;;;;;;;;;6170946;23;20427;-87
2023/06/20 12:18:40;;;;;;;8.30;5.87;;;;;;;;;;6168461;23;20726;-92
2023/06/20 12:21:06;;;;;;;9.00;6.10;;;;;;;;;;6166935;23;20376;-93
2023/06/20 12:23:34;;;;;;;5.53;5.03;;;;;;;;;;6163508;23;20489;-90
2023/06/20 12:26:00;;;;;;;6.87;6.10;;;;;;;;;;6165617;23;20376;-90
2023/06/20 12:28:26;;;;;;;7.30;6.40;;;;;;;;;;6164421;23;20391;-91
2023/06/20 12:30:52;;;;;;;7.00;6.30;;;;;;;;;;6164638;23;20487;-90
2023/06/20 12:33:18;;;;;;;7.50;6.00;;;;;;;;;;6164248;23;20406;-92
2023/06/20 12:35:44;;;;;;;7.93;6.03;;;;;;;;;;6163820;23;20392;-90
2023/06/20 12:38:10;;;;;;;9.70;6.37;;;;;;;;;;6163579;23;20852;-90
2023/06/20 12:40:36;;;;;;;9.67;7.10;;;;;;;;;;6165820;23;20388;-91
2023/06/20 12:43:02;;;;;;;7.53;6.83;;;;;;;;;;6163893;23;20462;-91
2023/06/20 12:45:28;;;;;;;8.20;6.03;;;;;;;;;;6192810;23;20364;-91
2023/06/20 12:47:54;;;;;;;10.50;7.30;;;;;;;;;;6165471;23;20396;-91
2023/06/20 12:50:20;;;;;;;8.83;6.50;;;;;;;;;;6164976;23;20388;-90
2023/06/20 12:52:46;;;;;;;10.10;7.27;;;;;;;;;;6164424;23;20391;-91
2023/06/20 12:55:13;;;;;;;8.53;6.80;;;;;;;;;;6167816;23;20428;-90
2023/06/20 12:57:39;;;;;;;7.90;6.50;;;;;;;;;;6189468;23;20364;-91
2023/06/20 13:00:06;;;;;;;8.50;6.97;;;;;;;;;;6163975;23;20412;-91
2023/06/20 13:02:33;;;;;;;8.93;6.20;;;;;;;;;;6161213;23;20204;-92
2023/06/20 13:04:59;;;;;;;9.43;6.90;;;;;;;;;;6163656;23;20400;-92
2023/06/20 13:07:25;;;;;;;7.40;6.50;;;;;;;;;;6163207;23;20474;-93
2023/06/20 13:09:51;;;;;;;8.07;6.77;;;;;;;;;;6166222;23;20380;-92
2023/06/20 13:12:17;;;;;;;7.57;6.80;;;;;;;;;;6164882;23;20455;-89
2023/06/20 13:14:44;;;;;;;9.60;6.97;;;;;;;;;;6166096;23;20384;-90
2023/06/20 13:17:10;;;;;;;7.97;6.73;;;;;;;;;;6165130;23;20423;-91
2023/06/20 13:19:36;;;;;;;8.10;7.30;;;;;;;;;;6167360;23;20408;-89
2023/06/20 13:22:03;;;;;;;13.07;7.60;;;;;;;;;;6164848;23;20443;-88
2023/06/20 13:24:29;;;;;;;8.00;7.20;;;;;;;;;;6186405;23;20447;-91
2023/06/20 13:26:55;;;;;;;10.20;6.60;;;;;;;;;;6163571;23;20384;-89
2023/06/20 13:29:21;;;;;;;10.43;7.90;;;;;;;;;;6188360;23;20453;-92
2023/06/20 13:31:48;;;;;;;7.73;6.47;;;;;;;;;;6161431;23;21074;-89
2023/06/20 13:34:14;;;;;;;9.37;7.03;;;;;;;;;;6104998;23;20373;-87
2023/06/20 13:36:40;;;;;;;10.67;6.60;;;;;;;;;;6105907;23;20881;-87
2023/06/20 13:39:06;;;;;;;7.37;6.67;;;;;;;;;;6105795;23;20412;-87
2023/06/20 13:41:32;;;;;;;11.40;6.30;;;;;;;;;;6133444;23;20391;-86
2023/06/20 13:43:58;;;;;;;7.70;7.00;;;;;;;;;;6132547;23;20169;-87
2023/06/20 13:46:24;;;;;;;8.33;6.63;;;;;;;;;;6107809;23;20388;-86
2023/06/20 13:48:50;;;;;;;9.00;6.80;;;;;;;;;;6128925;23;20397;-86
2023/06/20 13:51:16;;;;;;;8.10;6.90;;;;;;;;;;6135421;23;20781;-87
2023/06/20 13:53:44;;;;;;;10.00;7.00;;;;;;;;;;6130851;23;20379;-87
2023/06/20 13:56:10;;;;;;;9.63;6.80;;;;;;;;;;6131713;23;20408;-87
2023/06/20 13:58:36;;;;;;;9.00;6.97;;;;;;;;;;6106944;23;20845;-87
2023/06/20 14:01:02;;;;;;;7.60;6.90;;;;;;;;;;6107952;23;20164;-87
2023/06/20 14:03:28;;;;;;;8.40;6.70;;;;;;;;;;6105975;23;20233;-87
2023/06/20 14:05:55;;;;;;;9.87;7.27;;;;;;;;;;6108439;23;20377;-87
2023/06/20 14:08:22;;;;;;;7.63;6.50;;;;;;;;;;6104432;23;20153;-87
2023/06/20 14:10:48;;;;;;;8.90;7.87;;;;;;;;;;6105612;23;20445;-86
2023/06/20 14:13:14;;;;;;;12.03;6.77;;;;;;;;;;6104569;23;20423;-87
2023/06/20 14:15:41;;;;;;;12.97;7.37;;;;;;;;;;6129517;23;20207;-87
2023/06/20 14:18:07;;;;;;;10.43;6.83;;;;;;;;;;6104573;23;20163;-86
2023/06/20 14:20:34;;;;;;;12.40;6.80;;;;;;;;;;6108943;23;20420;-86
2023/06/20 14:23:00;;;;;;;9.43;6.50;;;;;;;;;;6130551;23;20605;-86
2023/06/20 14:25:26;;;;;;;8.60;6.50;;;;;;;;;;6105511;23;20473;-87
2023/06/20 14:27:52;;;;;;;7.93;6.70;;;;;;;;;;6130758;23;20443;-86
2023/06/20 14:30:18;;;;;;;8.60;6.30;;;;;;;;;;6129956;23;20433;-88
2023/06/20 14:32:44;;;;;;;11.37;6.67;;;;;;;;;;6128460;23;20177;-88
2023/06/20 14:35:10;;;;;;;10.23;6.57;;;;;;;;;;6185480;23;20400;-85
2023/06/20 14:37:36;;;;;;;8.40;6.47;;;;;;;;;;6183834;23;20426;-87
2023/06/20 14:40:03;;;;;;;13.03;7.27;;;;;;;;;;6159357;23;20375;-87
2023/06/20 14:42:29;;;;;;;8.10;6.00;;;;;;;;;;6157566;23;20426;-87